Time;durP1;ratioP1;P1;durP2;ratioP2;P2;SDS_P1;SDS_P2;PMS_P1;PMS_P2;Temp;Humidity;BMP_temperature;BMP_pressure;BME280_temperature;BME280_humidity;BME280_pressure;Samples;Min_cycle;Max_cycle;Signal;HPM_P1;HPM_P2
2022/07/12 00:01:22;;;;;;;8.93;4.70;;;;;;;22.88;52.09;98734.91;5103489;27;20039;-74
2022/07/12 00:03:47;;;;;;;9.52;4.70;;;;;;;22.83;52.10;98730.09;5105359;27;20043;-70
2022/07/12 00:06:12;;;;;;;5.03;4.30;;;;;;;22.89;52.17;98740.13;5124241;27;20038;-75
2022/07/12 00:08:37;;;;;;;6.00;4.40;;;;;;;22.73;52.64;98729.66;5105999;27;20043;-75
2022/07/12 00:11:02;;;;;;;10.00;4.45;;;;;;;22.60;53.31;98722.34;5120101;27;20074;-72
2022/07/12 00:13:27;;;;;;;5.72;4.20;;;;;;;22.55;53.47;98733.00;5100494;27;20070;-70
2022/07/12 00:15:52;;;;;;;9.35;4.68;;;;;;;22.62;53.35;98725.69;5118168;27;20121;-70
2022/07/12 00:18:17;;;;;;;5.43;4.10;;;;;;;22.58;53.29;98715.44;5099581;27;20043;-71
2022/07/12 00:20:41;;;;;;;15.35;4.60;;;;;;;22.50;53.73;98732.78;5120548;27;20074;-73
2022/07/12 00:23:06;;;;;;;6.25;4.50;;;;;;;22.58;53.55;98723.56;5114349;27;20125;-73
2022/07/12 00:25:31;;;;;;;5.97;3.97;;;;;;;22.65;53.48;98725.28;5109866;27;20099;-71
2022/07/12 00:27:56;;;;;;;5.78;4.20;;;;;;;22.67;53.27;98727.78;5113241;27;20042;-70
2022/07/12 00:30:21;;;;;;;5.78;4.30;;;;;;;22.53;53.69;98716.06;5113562;27;20039;-70
2022/07/12 00:32:47;;;;;;;5.82;4.60;;;;;;;22.53;53.71;98723.38;5110126;27;20033;-70
2022/07/12 00:35:12;;;;;;;11.55;4.90;;;;;;;22.48;53.95;98731.31;5091065;27;20039;-71
2022/07/12 00:37:37;;;;;;;7.30;4.50;;;;;;;22.52;53.84;98725.25;5090844;27;20504;-66
2022/07/12 00:40:08;;;;;;;6.55;4.53;;;;;;;22.61;53.42;98723.16;5110566;27;20050;-70
2022/07/12 00:42:33;;;;;;;5.88;4.40;;;;;;;22.56;53.45;98710.22;5108891;27;20481;-71
2022/07/12 00:44:58;;;;;;;5.13;4.30;;;;;;;22.53;53.68;98710.63;5108854;27;20556;-72
2022/07/12 00:47:36;;;;;;;7.57;4.25;;;;;;;22.59;53.61;98736.97;5109623;27;20474;-73
2022/07/12 00:50:01;;;;;;;5.38;4.53;;;;;;;22.63;53.27;98700.19;5090112;27;20126;-71
2022/07/12 00:52:28;;;;;;;10.32;4.80;;;;;;;22.62;53.15;98693.09;5105221;27;20078;-71
2022/07/12 00:54:52;;;;;;;6.93;4.70;;;;;;;22.50;53.64;98694.75;5110859;27;20066;-73
2022/07/12 00:57:18;;;;;;;5.90;4.53;;;;;;;22.48;53.89;98685.13;5076915;27;20035;-71
2022/07/12 00:59:42;;;;;;;7.38;4.18;;;;;;;22.55;53.26;98659.66;5089445;27;20401;-71
2022/07/12 01:02:07;;;;;;;6.25;4.80;;;;;;;22.66;52.78;98678.03;5090481;27;20039;-70
2022/07/12 01:04:33;;;;;;;6.72;4.97;;;;;;;22.60;53.04;98668.00;5089267;27;20034;-69
2022/07/12 01:06:58;;;;;;;8.15;5.00;;;;;;;22.64;53.00;98658.38;5087440;27;20038;-73
2022/07/12 01:09:23;;;;;;;7.25;4.57;;;;;;;22.59;53.16;98654.63;5089395;27;20408;-70
2022/07/12 01:11:48;;;;;;;7.20;4.68;;;;;;;22.57;53.32;98646.72;5105029;27;20479;-71
2022/07/12 01:14:14;;;;;;;7.07;4.65;;;;;;;22.53;53.55;98660.91;5087673;27;20092;-72
2022/07/12 01:16:40;;;;;;;5.38;3.70;;;;;;;22.68;53.06;98648.78;5085690;27;20039;-72
2022/07/12 01:19:06;;;;;;;8.00;4.75;;;;;;;22.60;53.66;98650.84;5072766;27;20054;-65
2022/07/12 01:21:37;;;;;;;8.43;4.65;;;;;;;22.46;54.04;98652.75;5078804;27;20035;-63
2022/07/12 01:24:02;;;;;;;5.47;4.85;;;;;;;22.45;54.09;98637.53;5097152;27;20394;-64
2022/07/12 01:26:27;;;;;;;8.15;4.65;;;;;;;22.40;54.33;98649.00;5096523;27;20102;-69
2022/07/12 01:28:53;;;;;;;7.53;4.70;;;;;;;22.30;54.59;98645.03;5096962;27;20043;-67
2022/07/12 01:31:18;;;;;;;6.80;4.80;;;;;;;22.39;54.73;98643.78;5078663;27;20043;-65
2022/07/12 01:33:43;;;;;;;6.78;4.63;;;;;;;22.38;54.70;98642.09;5097052;27;20047;-65
2022/07/12 01:36:08;;;;;;;10.20;5.05;;;;;;;22.39;54.75;98617.47;5079439;27;20058;-66
2022/07/12 01:38:33;;;;;;;7.25;5.03;;;;;;;22.24;55.21;98626.84;5097835;27;20095;-67
2022/07/12 01:40:58;;;;;;;9.35;5.38;;;;;;;22.23;55.18;98611.63;5107603;27;20043;-70
2022/07/12 01:43:23;;;;;;;7.32;4.90;;;;;;;22.20;55.31;98607.44;5113445;27;20054;-69
2022/07/12 01:45:47;;;;;;;6.43;4.35;;;;;;;22.25;55.08;98602.22;5100137;27;20074;-69
2022/07/12 01:48:12;;;;;;;10.68;5.00;;;;;;;22.34;54.80;98598.25;5078518;27;20131;-69
2022/07/12 01:50:37;;;;;;;5.90;5.13;;;;;;;22.20;55.47;98588.44;5061464;27;20118;-72
2022/07/12 01:53:06;;;;;;;7.40;5.65;;;;;;;22.19;55.35;98592.19;5078519;27;20035;-68
2022/07/12 01:55:31;;;;;;;9.23;5.05;;;;;;;22.28;55.16;98595.53;5100811;27;20126;-69
2022/07/12 01:57:56;;;;;;;8.73;5.90;;;;;;;22.36;55.08;98593.44;5106866;27;20159;-68
2022/07/12 02:00:21;;;;;;;8.68;5.88;;;;;;;22.26;55.79;98584.03;5108197;27;20114;-70
2022/07/12 02:02:47;;;;;;;8.23;5.70;;;;;;;22.20;55.79;98593.88;5107992;27;20047;-68
2022/07/12 02:05:11;;;;;;;7.13;5.38;;;;;;;22.40;55.42;98607.44;5104669;27;20043;-69
2022/07/12 02:07:37;;;;;;;9.32;5.53;;;;;;;22.37;55.38;98569.81;5089048;28;20130;-69
2022/07/12 02:10:05;;;;;;;7.53;5.25;;;;;;;22.20;56.15;98584.88;5090635;28;20067;-71
2022/07/12 02:12:29;;;;;;;7.88;5.70;;;;;;;22.24;56.21;98569.84;5111154;27;20039;-70
2022/07/12 02:14:54;;;;;;;9.15;5.95;;;;;;;22.12;56.49;98566.94;5087712;28;20045;-67
2022/07/12 02:17:19;;;;;;;11.25;5.85;;;;;;;22.05;56.83;98557.94;5086912;28;20050;-66
2022/07/12 02:19:44;;;;;;;7.25;5.70;;;;;;;22.02;56.97;98559.19;5104109;28;20047;-67
2022/07/12 02:22:09;;;;;;;5.55;4.60;;;;;;;22.08;56.82;98558.38;5109269;27;20047;-69
2022/07/12 02:24:34;;;;;;;8.48;5.70;;;;;;;22.05;57.28;98561.50;5096914;28;20053;-73
2022/07/12 02:26:59;;;;;;;7.55;5.30;;;;;;;22.03;57.33;98563.59;5083513;28;20515;-72
2022/07/12 02:29:24;;;;;;;6.95;5.85;;;;;;;21.98;57.61;98557.09;5064855;28;20032;-68
2022/07/12 02:31:49;;;;;;;10.55;6.25;;;;;;;21.94;57.85;98561.25;5077491;28;20171;-69
2022/07/12 02:34:13;;;;;;;8.50;5.90;;;;;;;21.87;58.21;98555.00;5095327;28;20480;-70
2022/07/12 02:36:38;;;;;;;6.85;5.35;;;;;;;21.82;58.33;98566.47;5095853;27;20482;-68
2022/07/12 02:39:04;;;;;;;9.10;5.20;;;;;;;21.83;58.07;98561.88;5095574;28;20535;-69
2022/07/12 02:41:29;;;;;;;9.73;6.40;;;;;;;21.85;58.09;98566.06;5095554;28;20095;-70
2022/07/12 02:43:54;;;;;;;5.80;4.75;;;;;;;21.93;57.60;98565.84;5095341;28;20049;-68
2022/07/12 02:46:19;;;;;;;7.00;6.07;;;;;;;22.06;57.37;98570.47;5095447;28;20043;-68
2022/07/12 02:48:43;;;;;;;7.28;5.68;;;;;;;21.93;57.81;98567.72;5077072;28;20078;-68
2022/07/12 02:51:09;;;;;;;9.85;5.75;;;;;;;21.88;57.89;98573.78;5077296;28;20055;-66
2022/07/12 02:53:35;;;;;;;8.65;5.70;;;;;;;21.85;58.00;98544.34;5095622;27;20467;-67
2022/07/12 02:56:00;;;;;;;7.18;4.53;;;;;;;21.97;57.57;98552.72;5076758;28;20053;-66
2022/07/12 02:58:25;;;;;;;8.18;5.95;;;;;;;21.99;57.62;98562.34;5094773;28;20110;-70
2022/07/12 03:00:49;;;;;;;8.38;6.10;;;;;;;22.03;57.72;98573.59;5094907;28;20047;-72
2022/07/12 03:03:15;;;;;;;10.15;6.22;;;;;;;22.08;56.83;98565.69;5076522;28;20043;-70
2022/07/12 03:05:40;;;;;;;7.63;5.40;;;;;;;22.12;56.98;98560.69;5079080;28;20063;-70
2022/07/12 03:08:07;;;;;;;10.25;5.90;;;;;;;22.11;56.98;98575.28;5096686;28;20042;-69
2022/07/12 03:10:32;;;;;;;8.27;5.05;;;;;;;22.23;56.37;98593.47;5095615;28;20386;-70
2022/07/12 03:12:57;;;;;;;6.60;5.25;;;;;;;22.25;56.12;98585.06;5094789;28;20466;-66
2022/07/12 03:15:22;;;;;;;7.65;4.95;;;;;;;22.17;56.28;98582.59;5094752;28;20505;-69
2022/07/12 03:17:46;;;;;;;14.75;6.10;;;;;;;22.06;56.49;98582.19;5095052;27;20470;-66
2022/07/12 03:20:14;;;;;;;8.32;6.03;;;;;;;22.02;57.10;98572.75;5076367;28;20051;-66
2022/07/12 03:22:39;;;;;;;10.10;5.43;;;;;;;22.14;56.56;98596.56;5097908;27;20544;-70
2022/07/12 03:25:04;;;;;;;7.40;4.60;;;;;;;22.15;56.69;98584.66;5081065;27;20876;-72
2022/07/12 03:27:31;;;;;;;8.60;5.85;;;;;;;22.16;56.65;98600.75;5098974;27;20043;-71
2022/07/12 03:29:58;;;;;;;7.88;5.63;;;;;;;22.28;56.48;98587.38;5098663;27;20680;-70
2022/07/12 03:32:24;;;;;;;6.38;5.47;;;;;;;22.30;56.38;98607.84;5101838;27;20058;-72
2022/07/12 03:34:48;;;;;;;9.23;6.07;;;;;;;22.34;55.94;98590.13;5110244;27;20512;-67
2022/07/12 03:37:13;;;;;;;5.75;4.57;;;;;;;22.40;56.02;98588.41;5093171;27;20450;-67
2022/07/12 03:39:38;;;;;;;9.07;5.72;;;;;;;22.19;56.77;98602.22;5113624;27;20043;-68
2022/07/12 03:42:03;;;;;;;8.57;5.57;;;;;;;22.07;57.23;98575.69;5110077;27;20430;-67
2022/07/12 03:44:30;;;;;;;7.35;5.05;;;;;;;22.02;57.33;98578.19;5110318;27;20385;-67
2022/07/12 03:46:54;;;;;;;8.73;5.78;;;;;;;22.03;57.23;98570.88;5090723;27;20037;-65
2022/07/12 03:49:19;;;;;;;11.55;6.18;;;;;;;22.00;57.28;98561.31;5110282;27;20042;-66
2022/07/12 03:51:44;;;;;;;6.25;5.15;;;;;;;22.08;57.26;98565.69;5112182;27;20039;-68
2022/07/12 03:54:09;;;;;;;10.90;6.18;;;;;;;22.09;57.29;98578.22;5078556;27;20039;-68
2022/07/12 03:59:18;;;;;;;8.57;6.50;;;;;;;22.40;56.45;98580.28;5072957;27;20039;-74
2022/07/12 04:01:43;;;;;;;7.43;5.80;;;;;;;22.34;56.47;98595.53;5105676;27;20043;-74
2022/07/12 04:04:07;;;;;;;11.73;5.80;;;;;;;22.40;56.35;98602.00;5099958;27;20043;-73
2022/07/12 04:06:32;;;;;;;11.38;6.30;;;;;;;22.49;56.33;98602.59;5097966;27;20462;-74
2022/07/12 04:08:57;;;;;;;10.15;6.55;;;;;;;22.60;56.39;98604.69;5098066;27;20034;-74
2022/07/12 04:11:21;;;;;;;10.32;6.45;;;;;;;22.86;55.40;98609.25;5098339;27;20047;-74
2022/07/12 04:13:46;;;;;;;9.77;6.85;;;;;;;23.03;55.32;98607.72;5079877;27;20077;-73
2022/07/12 04:16:12;;;;;;;8.90;4.68;;;;;;;23.26;54.73;98613.50;5097685;27;20039;-73
2022/07/12 04:18:36;;;;;;;9.13;6.28;;;;;;;23.27;54.68;98604.28;5098027;27;20431;-74
2022/07/12 04:21:01;;;;;;;13.30;6.28;;;;;;;23.29;54.81;98607.63;5079049;27;20043;-72
2022/07/12 04:23:26;;;;;;;10.57;6.18;;;;;;;23.44;54.23;98604.66;5097328;27;20122;-73
2022/07/12 04:25:51;;;;;;;8.38;6.07;;;;;;;23.51;53.79;98649.81;5061799;27;20055;-74
2022/07/12 04:28:16;;;;;;;8.65;5.68;;;;;;;23.29;54.24;98614.97;5097223;27;20091;-73
2022/07/12 04:30:43;;;;;;;10.13;6.00;;;;;;;23.22;54.56;98627.75;5097664;27;20042;-73
2022/07/12 04:33:08;;;;;;;11.18;5.80;;;;;;;23.32;54.26;98606.38;5078966;27;20050;-74
2022/07/12 04:35:32;;;;;;;12.25;6.82;;;;;;;23.36;53.94;98615.78;5079092;27;20042;-74
2022/07/12 04:37:57;;;;;;;11.98;7.15;;;;;;;23.44;53.81;98605.47;5097137;27;20039;-75
2022/07/12 04:40:22;;;;;;;10.85;6.90;;;;;;;23.40;54.17;98614.28;5097700;27;20054;-73
2022/07/12 04:42:47;;;;;;;12.90;7.60;;;;;;;23.37;54.33;98620.97;5099489;27;20079;-73
2022/07/12 04:45:11;;;;;;;11.13;6.85;;;;;;;23.30;54.52;98628.34;5081615;27;20125;-73
2022/07/12 04:47:37;;;;;;;8.73;6.82;;;;;;;23.25;54.71;98622.69;5097123;27;20117;-73
2022/07/12 04:50:07;;;;;;;10.02;7.00;;;;;;;23.28;54.68;98633.16;5096982;27;20409;-67
2022/07/12 04:52:32;;;;;;;11.10;7.32;;;;;;;23.18;54.75;98630.06;5078431;27;20035;-67
2022/07/12 04:54:57;;;;;;;12.50;7.63;;;;;;;23.12;54.78;98623.63;5096935;27;20095;-66
2022/07/12 04:57:21;;;;;;;10.30;7.13;;;;;;;23.10;55.06;98627.59;5096489;27;20132;-67
2022/07/12 04:59:46;;;;;;;10.35;7.07;;;;;;;22.98;55.33;98632.03;5061314;27;20042;-67
2022/07/12 05:02:11;;;;;;;10.43;6.82;;;;;;;22.89;56.23;98619.72;5096575;27;20038;-69
2022/07/12 05:04:36;;;;;;;10.82;6.75;;;;;;;22.87;55.87;98636.22;5096234;27;20043;-69
2022/07/12 05:07:00;;;;;;;14.55;7.97;;;;;;;22.80;56.08;98641.66;5061126;27;20085;-67
2022/07/12 05:09:25;;;;;;;15.55;8.88;;;;;;;22.59;56.92;98639.16;5096457;27;20039;-68
2022/07/12 05:11:50;;;;;;;9.85;7.13;;;;;;;22.53;57.16;98645.44;5099478;27;20043;-66
2022/07/12 05:14:15;;;;;;;13.35;7.28;;;;;;;22.51;57.41;98631.22;5078420;27;20050;-67
2022/07/12 05:16:39;;;;;;;9.75;7.65;;;;;;;22.50;57.56;98637.72;5077871;27;20516;-68
2022/07/12 05:19:04;;;;;;;17.48;7.78;;;;;;;22.53;57.56;98640.00;5095917;27;20054;-67
2022/07/12 05:21:29;;;;;;;17.48;7.35;;;;;;;22.50;57.54;98643.16;5095919;27;20493;-68
2022/07/12 05:23:54;;;;;;;12.38;7.75;;;;;;;22.63;56.59;98640.41;5095918;27;20045;-68
2022/07/12 05:26:19;;;;;;;11.35;7.85;;;;;;;22.65;56.94;98634.78;5096036;27;20043;-71
2022/07/12 05:28:44;;;;;;;12.45;7.47;;;;;;;22.56;57.12;98634.16;5096035;27;20039;-72
2022/07/12 05:31:09;;;;;;;9.70;6.13;;;;;;;22.53;57.45;98640.00;5096353;27;20050;-73
2022/07/12 05:33:34;;;;;;;10.00;7.20;;;;;;;22.60;57.06;98635.41;5096246;27;20082;-72
2022/07/12 05:35:59;;;;;;;11.95;8.60;;;;;;;22.65;57.13;98643.75;5077989;27;20063;-73
2022/07/12 05:38:24;;;;;;;13.70;7.43;;;;;;;22.58;57.31;98637.47;5096322;27;20039;-72
2022/07/12 05:40:49;;;;;;;12.18;7.25;;;;;;;22.51;57.58;98636.66;5095971;27;20047;-72
2022/07/12 05:43:15;;;;;;;11.63;7.57;;;;;;;22.53;57.89;98642.72;5096782;27;20053;-72
2022/07/12 05:45:42;;;;;;;10.27;7.40;;;;;;;22.48;58.94;98636.25;5095618;27;20494;-72
2022/07/12 05:48:06;;;;;;;9.63;7.45;;;;;;;22.47;58.75;98629.97;5096294;27;20031;-72
2022/07/12 05:50:31;;;;;;;10.65;7.60;;;;;;;22.46;59.02;98652.75;5095675;27;20106;-72
2022/07/12 05:55:39;;;;;;;12.52;6.95;;;;;;;21.57;62.46;98647.59;5096131;27;20130;-72
2022/07/12 05:58:04;;;;;;;12.55;7.32;;;;;;;21.43;64.46;98653.19;5060502;27;20134;-71
2022/07/12 06:00:29;;;;;;;12.95;7.68;;;;;;;20.91;66.93;98646.44;5096405;27;20141;-73
2022/07/12 06:02:53;;;;;;;14.57;8.52;;;;;;;20.29;68.33;98645.38;5078041;28;20494;-73
2022/07/12 06:05:18;;;;;;;12.75;7.85;;;;;;;19.90;70.52;98650.41;5096232;27;20138;-73
2022/07/12 06:07:43;;;;;;;12.45;8.00;;;;;;;19.70;70.42;98649.38;5077223;28;20050;-71
2022/07/12 06:10:08;;;;;;;15.48;8.13;;;;;;;19.57;71.34;98653.59;5077030;28;20046;-72
2022/07/12 06:12:33;;;;;;;13.93;8.10;;;;;;;19.58;71.42;98649.88;5060478;28;20035;-72
2022/07/12 06:14:58;;;;;;;10.45;8.40;;;;;;;19.58;71.81;98652.56;5095302;27;20223;-73
2022/07/12 06:17:23;;;;;;;13.73;7.93;;;;;;;19.71;71.66;98651.88;5095882;27;20066;-72
2022/07/12 06:19:49;;;;;;;12.93;8.68;;;;;;;19.69;71.85;98656.66;5077192;28;20082;-72
2022/07/12 06:22:13;;;;;;;11.93;7.82;;;;;;;19.68;71.31;98657.66;5077176;28;20078;-72
2022/07/12 06:24:38;;;;;;;11.80;8.77;;;;;;;19.85;71.83;98658.28;5095709;27;20087;-72
2022/07/12 06:27:03;;;;;;;20.02;10.93;;;;;;;19.97;71.63;98661.31;5096623;28;20497;-71
2022/07/12 06:29:28;;;;;;;16.90;9.48;;;;;;;20.13;71.02;98653.75;5096499;28;20512;-71
2022/07/12 06:31:53;;;;;;;14.20;7.72;;;;;;;20.26;70.55;98659.28;5095928;28;20513;-71
2022/07/12 06:34:18;;;;;;;12.68;7.80;;;;;;;20.32;69.83;98646.81;5095973;28;20047;-70
2022/07/12 06:36:43;;;;;;;11.05;8.93;;;;;;;20.40;71.04;98662.97;5095346;27;20043;-70
2022/07/12 06:39:08;;;;;;;20.42;9.68;;;;;;;20.60;71.39;98668.53;5095376;27;20051;-72
2022/07/12 06:41:33;;;;;;;10.73;8.07;;;;;;;20.69;71.71;98672.75;5077225;28;20050;-71
2022/07/12 06:43:58;;;;;;;17.77;8.82;;;;;;;20.87;70.79;98680.41;5095631;28;20043;-71
2022/07/12 06:46:22;;;;;;;16.38;8.50;;;;;;;21.08;69.11;98679.47;5098364;28;20046;-71
2022/07/12 06:48:47;;;;;;;13.77;8.50;;;;;;;21.15;69.69;98678.47;5102863;28;20068;-72
2022/07/12 06:51:12;;;;;;;14.82;7.97;;;;;;;21.26;68.17;98687.94;5077565;28;20065;-73
2022/07/12 06:53:37;;;;;;;16.95;7.88;;;;;;;21.31;68.01;98678.19;5076891;28;20054;-72
2022/07/12 06:56:01;;;;;;;15.15;8.93;;;;;;;21.36;68.20;98683.81;5095224;27;20501;-72
2022/07/12 06:58:26;;;;;;;13.23;8.48;;;;;;;21.44;67.96;98695.53;5080685;27;20134;-72
2022/07/12 07:00:51;;;;;;;11.02;6.35;;;;;;;21.63;65.71;98692.06;5099307;27;20184;-72
2022/07/12 07:03:16;;;;;;;10.63;7.80;;;;;;;21.57;66.19;98699.13;5099021;27;20100;-73
2022/07/12 07:05:41;;;;;;;6.93;5.18;;;;;;;21.68;65.02;98695.81;5099191;27;20117;-73
2022/07/12 07:08:06;;;;;;;12.10;6.78;;;;;;;21.71;64.19;98698.13;5063562;27;20046;-72
2022/07/12 07:10:30;;;;;;;10.90;7.00;;;;;;;21.68;64.68;98686.84;5107073;27;20047;-72
2022/07/12 07:12:56;;;;;;;8.70;6.68;;;;;;;21.82;64.89;98695.88;5109742;27;20090;-71
2022/07/12 07:15:20;;;;;;;17.35;6.72;;;;;;;22.04;63.22;98690.13;5076253;27;20035;-72
2022/07/12 07:17:45;;;;;;;8.18;6.10;;;;;;;22.33;63.08;98688.06;5088216;27;20055;-73
2022/07/12 07:20:11;;;;;;;9.27;5.78;;;;;;;23.58;59.35;98687.91;5105684;27;20055;-73
2022/07/12 07:22:35;;;;;;;9.60;6.38;;;;;;;24.95;55.38;98679.81;5080573;27;20585;-72
2022/07/12 07:25:00;;;;;;;9.48;6.55;;;;;;;26.29;51.89;98677.97;5098702;27;20529;-74
2022/07/12 07:27:25;;;;;;;15.30;6.47;;;;;;;27.36;48.53;98684.06;5098419;27;20509;-73
2022/07/12 07:32:33;;;;;;;8.18;5.90;;;;;;;28.81;44.34;98678.91;5085758;27;20091;-73
2022/07/12 07:34:58;;;;;;;8.18;5.97;;;;;;;29.55;42.84;98690.44;5080467;27;20495;-72
2022/07/12 07:37:23;;;;;;;11.23;6.50;;;;;;;29.71;41.88;98687.88;5080040;27;20133;-73
2022/07/12 07:39:48;;;;;;;12.05;6.30;;;;;;;29.92;41.26;98674.09;5062850;27;20088;-72
2022/07/12 07:42:13;;;;;;;11.35;6.05;;;;;;;30.93;39.67;98689.91;5080251;27;20047;-75
2022/07/12 07:44:37;;;;;;;7.40;6.03;;;;;;;31.52;39.18;98689.75;5079904;27;20039;-73
2022/07/12 07:47:02;;;;;;;6.00;5.05;;;;;;;32.56;36.44;98697.81;5098154;27;20413;-74
2022/07/12 07:49:27;;;;;;;8.70;6.28;;;;;;;32.51;36.47;98697.00;5062848;27;20034;-72
2022/07/12 07:51:52;;;;;;;12.23;6.65;;;;;;;33.29;35.98;98695.59;5098236;27;20414;-72
2022/07/12 07:54:17;;;;;;;7.85;5.85;;;;;;;34.06;33.39;98710.81;5098817;27;20098;-72
2022/07/12 07:56:42;;;;;;;10.30;6.85;;;;;;;33.96;33.35;98698.97;5098419;27;20047;-73
2022/07/12 07:59:07;;;;;;;8.23;6.30;;;;;;;32.02;35.67;98708.44;5098577;27;20046;-72
2022/07/12 08:01:53;;;;;;;12.07;6.35;;;;;;;30.02;38.87;98714.66;5098798;27;20051;-73
2022/07/12 08:04:19;;;;;;;12.43;6.45;;;;;;;28.19;42.61;98713.75;5097947;27;20044;-71
2022/07/12 08:06:45;;;;;;;10.38;5.78;;;;;;;26.58;47.88;98714.50;5097461;27;20216;-71
2022/07/12 08:09:10;;;;;;;10.60;6.43;;;;;;;25.54;50.50;98721.97;5097620;27;20118;-71
2022/07/12 08:11:35;;;;;;;9.10;6.45;;;;;;;24.77;52.79;98715.22;5080580;27;20091;-72
2022/07/12 08:14:00;;;;;;;8.40;6.32;;;;;;;24.44;53.87;98709.19;5080810;27;20066;-73
2022/07/12 08:16:25;;;;;;;11.95;6.50;;;;;;;24.85;53.50;98712.19;5098629;27;20058;-72
2022/07/12 08:18:50;;;;;;;10.20;6.70;;;;;;;26.43;50.24;98714.09;5078779;27;20638;-67
2022/07/12 08:21:15;;;;;;;8.60;6.28;;;;;;;29.01;45.48;98711.31;5078936;27;20489;-69
2022/07/12 08:23:40;;;;;;;7.93;6.40;;;;;;;30.95;39.22;98723.53;5097444;27;20083;-67
2022/07/12 08:26:05;;;;;;;8.68;5.82;;;;;;;31.11;38.56;98719.00;5062253;27;20414;-68
2022/07/12 08:28:29;;;;;;;10.88;6.38;;;;;;;30.80;38.46;98728.94;5097529;27;20413;-70
2022/07/12 08:30:55;;;;;;;14.25;6.90;;;;;;;30.61;37.99;98731.22;5097278;27;20046;-69
2022/07/12 08:33:20;;;;;;;8.48;6.30;;;;;;;31.15;37.37;98726.47;5097426;27;20519;-68
2022/07/12 08:35:45;;;;;;;10.63;5.88;;;;;;;31.70;36.37;98728.75;5097345;27;20043;-70
2022/07/12 08:38:10;;;;;;;8.63;5.78;;;;;;;32.25;35.17;98726.47;5097091;27;20043;-70
2022/07/12 08:40:34;;;;;;;6.55;5.35;;;;;;;32.18;34.60;98728.63;5097166;27;20049;-69
2022/07/12 08:43:02;;;;;;;8.95;5.50;;;;;;;32.59;34.88;98735.91;5097484;27;20041;-69
2022/07/12 08:45:27;;;;;;;5.93;5.22;;;;;;;33.82;32.48;98726.41;5079087;27;20062;-72
2022/07/12 08:47:52;;;;;;;6.57;5.35;;;;;;;35.12;30.01;98745.22;5097981;27;20516;-71
2022/07/12 08:50:19;;;;;;;6.57;5.78;;;;;;;35.51;29.22;98759.00;5078861;27;20043;-72
2022/07/12 08:52:47;;;;;;;11.60;5.53;;;;;;;;;;5097652;27;20046;-72
2022/07/12 08:55:29;;;;;;;7.28;5.63;;;;;;;37.03;nan;98795.84;5097605;27;20130;-71
2022/07/12 08:57:56;;;;;;;7.82;6.20;;;;;;;36.75;nan;98746.06;5097889;27;20575;-71
2022/07/12 09:00:22;;;;;;;8.93;6.03;;;;;;;35.61;nan;98739.47;5097601;27;20043;-71
2022/07/12 09:02:53;;;;;;;11.25;6.10;;;;;;;36.22;nan;98749.88;5097390;27;20035;-71
2022/07/12 09:05:20;;;;;;;10.15;6.07;;;;;;;36.27;nan;98755.34;5097267;27;20074;-72
2022/07/12 09:07:46;;;;;;;8.30;6.47;;;;;;;36.11;nan;98748.31;5097963;27;20080;-72
2022/07/12 09:10:12;;;;;;;8.85;6.25;;;;;;;36.07;nan;98744.50;5085801;27;20042;-72
2022/07/12 09:12:38;;;;;;;11.05;6.68;;;;;;;35.18;nan;98743.22;5069351;27;20039;-71
2022/07/12 09:15:13;;;;;;;9.02;7.05;;;;;;;35.83;nan;98749.22;5082487;27;20047;-73
2022/07/12 09:17:38;;;;;;;8.75;5.38;;;;;;;35.46;nan;98750.72;5084254;27;20134;-72
